Time;durP1;ratioP1;P1;durP2;ratioP2;P2;SDS_P1;SDS_P2;PMS_P1;PMS_P2;Temp;Humidity;BMP_temperature;BMP_pressure;BME280_temperature;BME280_humidity;BME280_pressure;Samples;Min_cycle;Max_cycle;Signal;HPM_P1;HPM_P2
2022/10/02 00:02:31;;;;;;;0.45;0.45;;;11.90;99.90;;;;;;5072216;28;20023;-75
2022/10/02 00:05:09;;;;;;;0.55;0.25;;;11.90;99.90;;;;;;5071876;28;20032;-75
2022/10/02 00:07:42;;;;;;;0.00;0.00;;;11.80;99.90;;;;;;5072493;28;20116;-75
2022/10/02 00:10:21;;;;;;;0.00;0.00;;;11.80;99.90;;;;;;5055253;28;20035;-75
2022/10/02 00:12:51;;;;;;;0.00;0.00;;;11.80;99.90;;;;;;5070701;28;20373;-75
2022/10/02 00:15:21;;;;;;;0.00;0.00;;;11.70;99.90;;;;;;5071851;28;20555;-75
2022/10/02 00:17:51;;;;;;;0.08;0.08;;;11.70;99.90;;;;;;5053883;28;20033;-75
2022/10/02 00:20:23;;;;;;;0.30;0.30;;;11.70;99.90;;;;;;5071968;28;20029;-76
2022/10/02 00:23:01;;;;;;;0.00;0.00;;;11.70;99.90;;;;;;5071877;28;20028;-76
2022/10/02 00:25:55;;;;;;;0.00;0.00;;;11.80;99.90;;;;;;5070424;28;20067;-76
2022/10/02 00:28:34;;;;;;;1.02;0.47;;;11.90;99.90;;;;;;5072002;28;20052;-76
2022/10/02 00:31:17;;;;;;;0.00;0.00;;;11.80;99.90;;;;;;5071825;28;20031;-76
2022/10/02 00:34:05;;;;;;;0.10;0.10;;;11.70;99.90;;;;;;5071779;28;20506;-76
2022/10/02 00:36:55;;;;;;;0.00;0.00;;;11.70;99.90;;;;;;5076030;28;20122;-76
2022/10/02 00:39:37;;;;;;;0.30;0.30;;;11.70;99.90;;;;;;5075646;28;20392;-76
2022/10/02 00:42:45;;;;;;;0.10;0.10;;;11.70;99.90;;;;;;5076107;28;20020;-76
2022/10/02 00:45:43;;;;;;;0.10;0.10;;;11.70;99.90;;;;;;5075476;28;20024;-76
2022/10/02 00:48:33;;;;;;;0.10;0.10;;;11.70;99.90;;;;;;5075902;28;20035;-76
2022/10/02 00:51:33;;;;;;;0.20;0.20;;;11.70;99.90;;;;;;5075528;28;20024;-76
2022/10/02 00:54:18;;;;;;;0.05;0.05;;;11.70;99.90;;;;;;5075410;28;20048;-75
2022/10/02 00:56:48;;;;;;;0.00;0.00;;;11.70;99.90;;;;;;5075417;28;20103;-75
2022/10/02 00:59:20;;;;;;;0.10;0.10;;;11.70;99.90;;;;;;5075299;28;20082;-76
2022/10/02 01:02:02;;;;;;;2.83;0.17;;;11.80;99.90;;;;;;5073995;28;20020;-76
2022/10/02 01:04:35;;;;;;;0.10;0.10;;;11.70;99.90;;;;;;5075179;28;20033;-76
2022/10/02 01:07:03;;;;;;;0.00;0.00;;;11.60;99.90;;;;;;5074938;28;20032;-76
2022/10/02 01:09:28;;;;;;;0.77;0.22;;;11.70;99.90;;;;;;5075156;28;20075;-75
2022/10/02 01:11:54;;;;;;;0.00;0.00;;;11.70;99.90;;;;;;5075082;28;20469;-75
2022/10/02 01:14:30;;;;;;;0.10;0.10;;;11.70;99.90;;;;;;5073861;28;20020;-76
2022/10/02 01:16:55;;;;;;;0.10;0.10;;;11.70;99.90;;;;;;5073680;28;20048;-76
2022/10/02 01:19:34;;;;;;;0.10;0.10;;;11.70;99.90;;;;;;5073632;28;20029;-76
2022/10/02 01:22:07;;;;;;;0.25;0.25;;;11.70;99.90;;;;;;5074913;28;20020;-75
2022/10/02 01:24:55;;;;;;;0.10;0.10;;;11.70;99.90;;;;;;5074896;28;20032;-76
2022/10/02 01:27:23;;;;;;;0.10;0.10;;;11.70;99.90;;;;;;5073111;28;20090;-76
2022/10/02 01:29:57;;;;;;;0.10;0.10;;;11.70;99.90;;;;;;5074758;28;20028;-76
2022/10/02 01:32:33;;;;;;;0.10;0.10;;;11.60;99.90;;;;;;5074826;28;20041;-76
2022/10/02 01:35:00;;;;;;;0.08;0.08;;;11.60;99.90;;;;;;5056551;28;20056;-76
2022/10/02 01:37:31;;;;;;;0.10;0.10;;;11.70;99.90;;;;;;5074562;28;20114;-76
2022/10/02 01:40:02;;;;;;;0.10;0.10;;;11.80;99.90;;;;;;5073308;28;20035;-76
2022/10/02 01:42:28;;;;;;;0.10;0.10;;;11.80;99.90;;;;;;5056643;28;20500;-76
2022/10/02 01:44:54;;;;;;;0.10;0.10;;;11.80;99.90;;;;;;5073251;28;20017;-76
2022/10/02 01:48:09;;;;;;;0.10;0.10;;;11.80;99.90;;;;;;5074355;28;20043;-76
2022/10/02 01:51:02;;;;;;;0.10;0.10;;;11.80;99.90;;;;;;5072736;28;20382;-76
2022/10/02 01:53:39;;;;;;;0.03;0.03;;;11.70;99.90;;;;;;5074256;28;20036;-75
2022/10/02 01:56:24;;;;;;;0.10;0.10;;;11.70;99.90;;;;;;5074252;28;20017;-76
2022/10/02 01:59:36;;;;;;;0.10;0.10;;;11.70;99.90;;;;;;5074371;28;20028;-76
2022/10/02 02:02:11;;;;;;;0.10;0.10;;;11.80;99.90;;;;;;5054559;28;20491;-76
2022/10/02 02:04:53;;;;;;;0.10;0.10;;;11.80;99.90;;;;;;5056184;28;20016;-76
2022/10/02 02:07:34;;;;;;;0.15;0.15;;;11.70;99.90;;;;;;5074021;28;20028;-76
2022/10/02 02:10:12;;;;;;;0.10;0.10;;;11.70;99.90;;;;;;5072865;28;20296;-76
2022/10/02 02:12:42;;;;;;;0.10;0.10;;;11.80;99.90;;;;;;5074039;28;20032;-76
2022/10/02 02:15:29;;;;;;;0.10;0.10;;;11.80;99.90;;;;;;5072465;28;20244;-76
2022/10/02 02:18:13;;;;;;;0.00;0.00;;;11.80;99.90;;;;;;5083588;23;20659;-74
2022/10/02 02:20:45;;;;;;;0.00;0.00;;;11.90;99.90;;;;;;5053945;28;20484;-75
2022/10/02 02:23:15;;;;;;;0.20;0.20;;;11.90;99.90;;;;;;5053737;28;20017;-74
2022/10/02 02:25:44;;;;;;;0.10;0.10;;;11.80;99.90;;;;;;5053604;28;20354;-75
2022/10/02 02:28:14;;;;;;;0.10;0.10;;;11.80;99.90;;;;;;5053672;28;20476;-74
2022/10/02 02:30:43;;;;;;;0.10;0.10;;;11.80;99.90;;;;;;5053784;28;20094;-74
2022/10/02 02:33:18;;;;;;;0.00;0.00;;;11.80;99.90;;;;;;5053548;28;20017;-74
2022/10/02 02:35:49;;;;;;;0.00;0.00;;;11.80;99.90;;;;;;5053440;28;20021;-74
2022/10/02 02:38:36;;;;;;;0.10;0.10;;;11.90;99.90;;;;;;5053536;28;20540;-74
2022/10/02 02:41:11;;;;;;;0.10;0.10;;;12.00;99.90;;;;;;5053432;28;20057;-74
2022/10/02 02:43:51;;;;;;;0.00;0.00;;;12.00;99.90;;;;;;5053459;28;20261;-74
2022/10/02 02:46:26;;;;;;;0.40;0.40;;;11.90;99.90;;;;;;5053263;28;20078;-75
2022/10/02 02:48:59;;;;;;;0.00;0.00;;;11.90;99.90;;;;;;5053460;28;20080;-74
2022/10/02 02:51:41;;;;;;;0.10;0.10;;;12.00;99.90;;;;;;5051950;28;20029;-75
2022/10/02 02:54:18;;;;;;;0.00;0.00;;;12.00;99.90;;;;;;5053269;28;20028;-74
2022/10/02 02:56:46;;;;;;;0.08;0.08;;;12.00;99.90;;;;;;5052836;28;20404;-75
2022/10/02 02:59:15;;;;;;;0.08;0.08;;;12.00;99.90;;;;;;5051768;28;20078;-74
2022/10/02 03:01:41;;;;;;;0.10;0.10;;;11.90;99.90;;;;;;5053121;28;20099;-74
2022/10/02 03:04:14;;;;;;;0.00;0.00;;;11.90;99.90;;;;;;5051676;28;20028;-74
2022/10/02 03:06:44;;;;;;;0.30;0.30;;;11.90;99.90;;;;;;5052626;28;20064;-74
2022/10/02 03:09:21;;;;;;;0.10;0.10;;;12.00;99.90;;;;;;5052930;28;20020;-74
2022/10/02 03:12:00;;;;;;;0.00;0.00;;;11.90;99.90;;;;;;5052948;28;20104;-74
2022/10/02 03:15:02;;;;;;;0.10;0.10;;;12.00;99.90;;;;;;5051575;28;20040;-74
2022/10/02 03:17:58;;;;;;;0.65;0.20;;;12.00;99.90;;;;;;5044610;28;20048;-74
2022/10/02 03:20:31;;;;;;;0.25;0.25;;;12.00;99.90;;;;;;5034804;28;20032;-74
2022/10/02 03:23:04;;;;;;;0.10;0.10;;;11.90;99.90;;;;;;5052802;28;20388;-74
2022/10/02 03:25:40;;;;;;;0.88;0.20;;;11.90;99.90;;;;;;5051193;28;20025;-74
2022/10/02 03:28:19;;;;;;;0.10;0.10;;;11.90;99.90;;;;;;5052672;28;20021;-74
2022/10/02 03:30:46;;;;;;;0.10;0.10;;;11.90;99.90;;;;;;5052663;28;20116;-74
2022/10/02 03:33:14;;;;;;;0.10;0.10;;;11.90;99.90;;;;;;5051188;28;20071;-74
2022/10/02 03:35:42;;;;;;;0.00;0.00;;;11.80;99.90;;;;;;5052463;28;20021;-74
2022/10/02 03:38:11;;;;;;;0.00;0.00;;;11.90;99.90;;;;;;5052428;28;20033;-74
2022/10/02 03:40:37;;;;;;;0.10;0.10;;;11.90;99.90;;;;;;5052420;28;20028;-74
2022/10/02 03:43:03;;;;;;;0.00;0.00;;;11.90;99.90;;;;;;5052269;28;20025;-74
2022/10/02 03:45:29;;;;;;;0.15;0.13;;;11.90;99.90;;;;;;5052173;28;20086;-74
2022/10/02 03:47:55;;;;;;;0.10;0.10;;;11.90;99.90;;;;;;5051020;28;20025;-74
2022/10/02 03:50:21;;;;;;;0.00;0.00;;;11.90;99.90;;;;;;5051204;28;20440;-74
2022/10/02 03:52:51;;;;;;;1.17;0.20;;;11.90;99.90;;;;;;5050967;28;20031;-74
2022/10/02 03:55:17;;;;;;;0.00;0.00;;;12.00;99.90;;;;;;5050743;28;20021;-74
2022/10/02 03:57:44;;;;;;;0.10;0.10;;;12.00;99.90;;;;;;5052312;28;20384;-75
2022/10/02 04:00:17;;;;;;;0.10;0.10;;;12.10;99.90;;;;;;5052207;28;20031;-74
2022/10/02 04:02:48;;;;;;;0.10;0.10;;;12.10;99.90;;;;;;5052128;28;20523;-75
2022/10/02 04:05:42;;;;;;;0.00;0.00;;;12.10;99.90;;;;;;5050599;28;20080;-74
2022/10/02 04:08:19;;;;;;;0.10;0.10;;;12.10;99.90;;;;;;5051325;28;20370;-74
2022/10/02 04:11:05;;;;;;;0.10;0.10;;;12.10;99.90;;;;;;5051650;28;20083;-74
2022/10/02 04:13:50;;;;;;;0.98;0.98;;;12.00;99.90;;;;;;5050641;28;20044;-75
2022/10/02 04:16:26;;;;;;;0.10;0.10;;;12.00;99.90;;;;;;5051784;28;20100;-75
2022/10/02 04:18:59;;;;;;;0.10;0.10;;;11.90;99.90;;;;;;5051491;28;20040;-75
2022/10/02 04:21:50;;;;;;;0.10;0.10;;;11.90;99.90;;;;;;5050635;28;20375;-75
2022/10/02 04:24:30;;;;;;;0.07;0.07;;;12.00;99.90;;;;;;5050666;28;20029;-75
2022/10/02 04:26:59;;;;;;;0.00;0.00;;;12.10;99.90;;;;;;5050419;28;20028;-76
2022/10/02 04:29:30;;;;;;;0.10;0.10;;;12.00;99.90;;;;;;5050908;28;20021;-75
2022/10/02 04:32:19;;;;;;;0.45;0.30;;;12.00;99.90;;;;;;5050717;28;20070;-75
2022/10/02 04:34:45;;;;;;;0.10;0.10;;;12.00;99.90;;;;;;5051754;28;20032;-75
2022/10/02 04:37:46;;;;;;;1.08;0.20;;;12.00;99.90;;;;;;5051661;28;20029;-76
2022/10/02 04:40:20;;;;;;;0.00;0.00;;;12.00;99.90;;;;;;5051780;28;20021;-75
2022/10/02 04:43:19;;;;;;;0.13;0.13;;;12.00;99.90;;;;;;5051832;28;20056;-75
2022/10/02 04:46:19;;;;;;;0.13;0.13;;;12.00;99.90;;;;;;5050308;28;20064;-75
2022/10/02 04:48:55;;;;;;;0.10;0.10;;;12.00;99.90;;;;;;5051648;28;20507;-75
2022/10/02 04:51:43;;;;;;;0.35;0.35;;;11.90;99.90;;;;;;5051764;28;20100;-75
2022/10/02 04:54:33;;;;;;;0.10;0.10;;;11.90;99.90;;;;;;5050447;28;20065;-75
2022/10/02 04:57:40;;;;;;;0.00;0.00;;;11.90;99.90;;;;;;5050206;28;20498;-75
2022/10/02 05:00:14;;;;;;;0.10;0.10;;;11.90;99.90;;;;;;5041030;28;20067;-75
2022/10/02 05:02:39;;;;;;;0.30;0.30;;;11.90;99.90;;;;;;5051538;28;20423;-74
2022/10/02 05:05:23;;;;;;;0.10;0.10;;;11.90;99.90;;;;;;5051264;28;20025;-75
2022/10/02 05:08:17;;;;;;;3.47;0.95;;;11.90;99.90;;;;;;5050161;28;20484;-75
2022/10/02 05:10:55;;;;;;;0.10;0.10;;;11.90;99.90;;;;;;5050210;28;20487;-75
2022/10/02 05:13:47;;;;;;;4.03;0.85;;;11.90;99.90;;;;;;5049489;28;20389;-75
2022/10/02 05:16:18;;;;;;;3.40;1.40;;;11.90;99.90;;;;;;5051150;28;20381;-75
2022/10/02 05:18:57;;;;;;;0.00;0.00;;;11.80;99.90;;;;;;5032949;28;20033;-74
2022/10/02 05:21:29;;;;;;;0.10;0.10;;;11.80;99.90;;;;;;5054922;28;20025;-75
2022/10/02 05:23:57;;;;;;;0.10;0.10;;;11.90;99.90;;;;;;5053625;28;20485;-75
2022/10/02 05:26:47;;;;;;;0.25;0.25;;;11.90;99.90;;;;;;5054700;28;20029;-75
2022/10/02 05:29:43;;;;;;;0.10;0.10;;;11.90;99.90;;;;;;5054751;28;20059;-75
2022/10/02 05:32:33;;;;;;;0.00;0.00;;;11.90;99.90;;;;;;5033464;28;20031;-75
2022/10/02 05:35:33;;;;;;;0.13;0.13;;;11.90;99.90;;;;;;5033415;28;20408;-75
2022/10/02 05:38:17;;;;;;;0.00;0.00;;;11.90;99.90;;;;;;5033340;28;20103;-75
2022/10/02 05:40:54;;;;;;;0.00;0.00;;;11.90;99.90;;;;;;5034686;28;20151;-75
2022/10/02 05:44:05;;;;;;;0.08;0.08;;;11.90;99.90;;;;;;5033404;28;20025;-75
2022/10/02 05:46:39;;;;;;;0.10;0.10;;;12.00;99.90;;;;;;5035181;28;20462;-75
2022/10/02 05:49:15;;;;;;;0.00;0.00;;;12.00;99.90;;;;;;5054600;28;20033;-75
2022/10/02 05:51:59;;;;;;;0.05;0.05;;;12.00;99.90;;;;;;5053233;28;20025;-74
2022/10/02 05:54:33;;;;;;;0.10;0.10;;;12.00;99.90;;;;;;5053138;28;20016;-75
2022/10/02 05:57:21;;;;;;;0.00;0.00;;;12.00;99.90;;;;;;5052941;28;20035;-75
2022/10/02 05:59:56;;;;;;;0.80;0.38;;;12.10;99.90;;;;;;5052994;28;20083;-75
2022/10/02 06:02:40;;;;;;;5.38;1.60;;;12.00;99.90;;;;;;5052781;28;20028;-75
2022/10/02 06:05:31;;;;;;;0.30;0.30;;;11.90;99.90;;;;;;5054000;28;20028;-75
2022/10/02 06:08:01;;;;;;;1.55;0.10;;;11.90;99.90;;;;;;5052925;28;20482;-74
2022/10/02 06:10:33;;;;;;;0.70;0.22;;;11.90;99.90;;;;;;5054117;28;20025;-75
2022/10/02 06:13:08;;;;;;;;;;;11.90;99.90;;;;;;5053101;28;20380;-74
2022/10/02 06:15:50;;;;;;;0.00;0.00;;;11.80;99.90;;;;;;5052625;28;20376;-75
2022/10/02 06:18:21;;;;;;;0.10;0.10;;;11.80;99.90;;;;;;5054035;28;20094;-75
2022/10/02 06:20:52;;;;;;;0.00;0.00;;;11.80;99.90;;;;;;5053648;28;20051;-74
2022/10/02 06:23:28;;;;;;;0.30;0.13;;;11.70;99.90;;;;;;5052571;28;20086;-75
2022/10/02 06:26:11;;;;;;;0.00;0.00;;;11.70;99.90;;;;;;5053199;28;20036;-75
2022/10/02 06:28:45;;;;;;;0.00;0.00;;;11.70;99.90;;;;;;5047096;28;20048;-75
2022/10/02 06:31:26;;;;;;;0.00;0.00;;;11.80;99.90;;;;;;5052979;28;20067;-75
2022/10/02 06:33:52;;;;;;;5.18;0.20;;;11.80;99.90;;;;;;5052160;28;20475;-75
2022/10/02 06:36:36;;;;;;;0.30;0.30;;;11.80;99.90;;;;;;5053358;28;20487;-75
2022/10/02 06:39:11;;;;;;;2.65;0.82;;;11.80;99.90;;;;;;5053412;28;20100;-75
2022/10/02 06:41:37;;;;;;;0.03;0.03;;;11.80;99.90;;;;;;5053497;28;20496;-75
2022/10/02 06:44:19;;;;;;;0.45;0.45;;;11.80;99.90;;;;;;5051959;28;20017;-74
2022/10/02 06:47:07;;;;;;;0.80;0.40;;;11.70;99.90;;;;;;5053210;28;20362;-75
2022/10/02 06:49:58;;;;;;;0.25;0.10;;;11.70;99.90;;;;;;5053183;28;20025;-75
2022/10/02 06:52:46;;;;;;;3.13;0.90;;;11.60;99.90;;;;;;5053397;28;20113;-74
2022/10/02 06:55:40;;;;;;;0.30;0.25;;;11.70;99.90;;;;;;5053030;28;20477;-74
2022/10/02 06:58:15;;;;;;;0.00;0.00;;;11.70;99.90;;;;;;5053356;28;20112;-75
2022/10/02 07:01:08;;;;;;;0.00;0.00;;;11.70;99.90;;;;;;5052936;28;20112;-75
2022/10/02 07:03:51;;;;;;;0.00;0.00;;;11.70;99.90;;;;;;5053144;28;20504;-75
2022/10/02 07:06:34;;;;;;;0.10;0.10;;;11.70;99.90;;;;;;5052896;28;20383;-75
2022/10/02 07:09:39;;;;;;;0.65;0.20;;;11.70;99.90;;;;;;5053013;28;20025;-74
2022/10/02 07:12:47;;;;;;;0.00;0.00;;;11.70;99.90;;;;;;5037146;28;20048;-75
2022/10/02 07:15:30;;;;;;;0.75;0.63;;;11.60;99.90;;;;;;5028222;28;20542;-74
2022/10/02 07:18:41;;;;;;;0.00;0.00;;;11.60;99.90;;;;;;5051578;28;20032;-75
2022/10/02 07:21:26;;;;;;;0.00;0.00;;;11.70;99.90;;;;;;5052738;28;20116;-75
2022/10/02 07:24:19;;;;;;;0.00;0.00;;;11.70;99.90;;;;;;5052643;28;20036;-75
2022/10/02 07:27:00;;;;;;;0.00;0.00;;;11.60;99.90;;;;;;5034539;28;20499;-74
2022/10/02 07:29:45;;;;;;;0.30;0.30;;;11.60;99.90;;;;;;5052622;28;20020;-74
2022/10/02 07:32:48;;;;;;;0.00;0.00;;;11.60;99.90;;;;;;5052612;28;20029;-75
2022/10/02 07:35:37;;;;;;;0.20;0.10;;;11.70;99.90;;;;;;5052689;28;20048;-75
2022/10/02 07:38:17;;;;;;;0.00;0.00;;;11.90;99.90;;;;;;5046769;28;20544;-74
2022/10/02 07:41:07;;;;;;;0.30;0.22;;;11.90;99.90;;;;;;5052437;28;20025;-74
2022/10/02 07:43:42;;;;;;;0.00;0.00;;;11.90;99.90;;;;;;5051491;28;20025;-74
2022/10/02 07:46:20;;;;;;;0.00;0.00;;;11.90;99.90;;;;;;5052105;28;20037;-75
2022/10/02 07:49:07;;;;;;;0.15;0.15;;;11.90;99.90;;;;;;5052033;28;20078;-74
2022/10/02 07:52:02;;;;;;;0.00;0.00;;;12.00;99.90;;;;;;5052288;28;20035;-74
2022/10/02 07:54:46;;;;;;;0.00;0.00;;;12.10;99.90;;;;;;5052209;28;20024;-74
2022/10/02 07:57:15;;;;;;;0.10;0.10;;;12.10;99.90;;;;;;5051916;28;20029;-74
2022/10/02 07:59:42;;;;;;;0.00;0.00;;;12.00;99.90;;;;;;5052185;28;20032;-74
2022/10/02 08:02:25;;;;;;;0.00;0.00;;;12.00;99.90;;;;;;5052130;28;20032;-74
2022/10/02 08:04:56;;;;;;;0.00;0.00;;;11.90;99.90;;;;;;5050718;28;20033;-75
2022/10/02 08:07:22;;;;;;;0.00;0.00;;;12.00;99.90;;;;;;5052048;28;20029;-74
2022/10/02 08:09:50;;;;;;;0.00;0.00;;;12.00;99.90;;;;;;5051584;28;20039;-74
2022/10/02 08:12:26;;;;;;;1.67;1.55;;;12.00;99.90;;;;;;5050587;28;20021;-74
2022/10/02 08:14:56;;;;;;;0.17;0.17;;;11.90;99.90;;;;;;5048093;28;20021;-74
2022/10/02 08:17:28;;;;;;;26.13;3.65;;;11.90;99.90;;;;;;5047787;28;20032;-74
2022/10/02 08:20:01;;;;;;;6.13;1.90;;;11.90;99.90;;;;;;5046702;28;20052;-74
2022/10/02 08:22:39;;;;;;;0.30;0.30;;;11.90;99.90;;;;;;5048115;28;20430;-74
2022/10/02 08:25:27;;;;;;;3.30;0.63;;;11.90;99.90;;;;;;5049061;28;20033;-74
2022/10/02 08:28:08;;;;;;;0.00;0.00;;;11.80;99.90;;;;;;5050524;28;20029;-74
2022/10/02 08:30:35;;;;;;;0.00;0.00;;;11.80;99.90;;;;;;5052041;28;20029;-76
2022/10/02 08:33:12;;;;;;;0.00;0.00;;;11.90;99.90;;;;;;5051569;28;20031;-75
2022/10/02 08:36:02;;;;;;;1.00;0.35;;;11.90;99.90;;;;;;5050355;28;20501;-74
2022/10/02 08:38:34;;;;;;;0.00;0.00;;;11.90;99.90;;;;;;5049612;28;20036;-74
2022/10/02 08:41:30;;;;;;;0.00;0.00;;;12.00;99.90;;;;;;5033642;28;20037;-74
2022/10/02 08:44:36;;;;;;;5.47;3.30;;;12.10;99.90;;;;;;5051519;28;20029;-74
2022/10/02 08:47:32;;;;;;;0.00;0.00;;;12.10;99.90;;;;;;5051259;28;20032;-74
2022/10/02 08:50:28;;;;;;;0.00;0.00;;;12.30;99.90;;;;;;5050040;28;20512;-74
2022/10/02 08:53:24;;;;;;;0.00;0.00;;;12.30;99.90;;;;;;5047063;28;20032;-74
2022/10/02 08:55:50;;;;;;;0.20;0.20;;;12.20;99.90;;;;;;5053317;28;20370;-74
2022/10/02 08:58:30;;;;;;;0.00;0.00;;;12.10;99.90;;;;;;5054312;28;20082;-74
2022/10/02 09:01:31;;;;;;;0.05;0.05;;;12.10;99.90;;;;;;5053568;28;20060;-74
2022/10/02 09:04:07;;;;;;;0.00;0.00;;;12.10;99.90;;;;;;5055252;28;20021;-75
2022/10/02 09:07:09;;;;;;;0.00;0.00;;;12.30;99.90;;;;;;5054728;28;20029;-74
2022/10/02 09:10:13;;;;;;;0.00;0.00;;;12.30;99.90;;;;;;5053940;28;20021;-74
2022/10/02 09:13:23;;;;;;;0.00;0.00;;;12.40;99.90;;;;;;5053739;28;20451;-74
2022/10/02 09:16:13;;;;;;;0.00;0.00;;;12.40;99.90;;;;;;5039367;28;20033;-74
2022/10/02 09:19:02;;;;;;;0.00;0.00;;;12.50;99.90;;;;;;5052244;28;20380;-74
2022/10/02 09:21:49;;;;;;;0.00;0.00;;;12.50;99.90;;;;;;5051240;28;20029;-75
2022/10/02 09:24:46;;;;;;;0.00;0.00;;;12.50;99.90;;;;;;5050398;28;20033;-74
2022/10/02 09:28:16;;;;;;;0.08;0.08;;;12.50;99.90;;;;;;5032517;28;20033;-75
2022/10/02 09:31:06;;;;;;;0.00;0.00;;;12.50;99.90;;;;;;5027571;28;20038;-74
2022/10/02 09:33:50;;;;;;;0.00;0.00;;;12.70;99.90;;;;;;5034864;28;20022;-74
2022/10/02 09:36:34;;;;;;;0.00;0.00;;;12.60;99.90;;;;;;5066904;28;20048;-75
2022/10/02 09:39:28;;;;;;;0.00;0.00;;;12.90;99.90;;;;;;5074600;28;20028;-74
2022/10/02 09:42:02;;;;;;;0.00;0.00;;;13.00;99.90;;;;;;5074017;28;20017;-74
2022/10/02 09:44:57;;;;;;;0.00;0.00;;;13.20;99.90;;;;;;5073708;28;20052;-74
2022/10/02 09:47:38;;;;;;;0.00;0.00;;;13.20;99.90;;;;;;5074463;28;20028;-75
2022/10/02 09:50:29;;;;;;;0.00;0.00;;;13.20;99.90;;;;;;5072787;28;20020;-74
2022/10/02 09:53:25;;;;;;;0.00;0.00;;;13.30;99.90;;;;;;5074354;28;20025;-75
2022/10/02 09:56:06;;;;;;;0.40;0.17;;;13.30;99.90;;;;;;5056078;28;20024;-74
2022/10/02 09:58:47;;;;;;;0.08;0.08;;;13.40;99.90;;;;;;5072666;28;20021;-75
2022/10/02 10:01:34;;;;;;;0.00;0.00;;;13.30;99.90;;;;;;5073101;28;20417;-74
2022/10/02 10:04:42;;;;;;;0.13;0.13;;;13.50;99.90;;;;;;5074047;28;20136;-74
2022/10/02 10:07:58;;;;;;;0.00;0.00;;;13.60;99.90;;;;;;5071742;28;20044;-76
2022/10/02 10:10:51;;;;;;;0.00;0.00;;;13.70;99.90;;;;;;5074203;28;20020;-74
2022/10/02 10:13:34;;;;;;;0.00;0.00;;;14.00;99.90;;;;;;5074055;28;20071;-75
2022/10/02 10:16:29;;;;;;;0.10;0.10;;;14.00;99.90;;;;;;5072560;28;20017;-74
2022/10/02 10:19:24;;;;;;;0.00;0.00;;;13.90;99.90;;;;;;5073873;28;20688;-75
2022/10/02 10:22:04;;;;;;;0.10;0.10;;;14.10;99.90;;;;;;5062976;28;20115;-75
2022/10/02 10:24:51;;;;;;;0.40;0.40;;;14.30;99.90;;;;;;5073724;28;20025;-75
2022/10/02 10:27:54;;;;;;;0.00;0.00;;;14.40;99.90;;;;;;5072433;28;20024;-74
2022/10/02 10:30:26;;;;;;;0.10;0.10;;;14.50;99.90;;;;;;5072462;28;20021;-75
2022/10/02 10:33:07;;;;;;;0.00;0.00;;;14.80;99.90;;;;;;5073540;28;20024;-74
2022/10/02 10:35:36;;;;;;;0.07;0.07;;;14.60;99.90;;;;;;5072239;28;20099;-74
2022/10/02 10:38:31;;;;;;;2.83;0.35;;;14.80;99.90;;;;;;5073389;28;20649;-74
2022/10/02 10:41:15;;;;;;;0.47;0.22;;;15.00;99.90;;;;;;5063078;28;20029;-75
2022/10/02 10:44:00;;;;;;;1.30;0.30;;;15.10;99.90;;;;;;5045108;28;20044;-74
2022/10/02 10:47:00;;;;;;;0.17;0.17;;;15.50;99.90;;;;;;5051780;28;20025;-75
2022/10/02 10:49:46;;;;;;;1.13;0.77;;;16.10;99.90;;;;;;5053014;28;20424;-75
2022/10/02 10:52:38;;;;;;;0.10;0.10;;;16.50;99.90;;;;;;5051676;28;20021;-75
2022/10/02 10:55:14;;;;;;;0.00;0.00;;;16.80;99.90;;;;;;5050870;28;20067;-74
2022/10/02 10:58:09;;;;;;;0.55;0.55;;;17.90;99.90;;;;;;5051654;28;20025;-75
2022/10/02 11:01:13;;;;;;;0.10;0.10;;;18.80;99.90;;;;;;5067572;28;20036;-75
2022/10/02 11:03:54;;;;;;;0.00;0.00;;;18.90;99.90;;;;;;4990106;28;20077;-75
2022/10/02 11:06:31;;;;;;;0.00;0.00;;;19.60;99.90;;;;;;5052503;28;20546;-75
2022/10/02 11:09:19;;;;;;;0.20;0.20;;;20.40;99.90;;;;;;5052786;28;20388;-75
2022/10/02 11:12:05;;;;;;;0.10;0.10;;;19.80;99.90;;;;;;5053056;28;20020;-75
2022/10/02 11:15:02;;;;;;;0.00;0.00;;;19.70;99.90;;;;;;5052854;28;20028;-75
2022/10/02 11:17:55;;;;;;;0.63;0.30;;;19.90;99.90;;;;;;5017573;28;20091;-75
2022/10/02 11:20:36;;;;;;;0.20;0.20;;;19.80;99.90;;;;;;5052589;28;20036;-74
2022/10/02 11:23:01;;;;;;;0.25;0.25;;;19.30;99.90;;;;;;5052263;28;20020;-75
2022/10/02 11:25:51;;;;;;;0.10;0.10;;;18.90;99.90;;;;;;5051182;28;20370;-75
2022/10/02 11:28:39;;;;;;;0.75;0.40;;;18.50;99.90;;;;;;5051333;28;20068;-77
2022/10/02 11:31:16;;;;;;;0.10;0.10;;;18.40;99.90;;;;;;5052603;28;20476;-75
2022/10/02 11:33:47;;;;;;;4.90;0.85;;;18.10;99.90;;;;;;5052447;28;20021;-75
2022/10/02 11:36:19;;;;;;;;;;;17.90;99.90;;;;;;5052765;28;20151;-75
2022/10/02 11:39:18;;;;;;;0.03;0.03;;;17.70;99.90;;;;;;5050932;28;19905;-75
2022/10/02 11:42:15;;;;;;;0.10;0.10;;;17.70;99.90;;;;;;5052566;28;20029;-75
2022/10/02 11:45:17;;;;;;;0.05;0.05;;;17.40;99.90;;;;;;5034293;28;20491;-76
2022/10/02 11:47:56;;;;;;;2.75;1.30;;;17.60;99.90;;;;;;5048763;28;20365;-75
2022/10/02 11:50:40;;;;;;;0.08;0.08;;;17.50;99.90;;;;;;5050838;28;20053;-78
2022/10/02 11:53:25;;;;;;;0.40;0.10;;;17.40;99.90;;;;;;5050657;28;20499;-75
2022/10/02 11:56:06;;;;;;;0.15;0.13;;;17.40;99.90;;;;;;5050645;28;20017;-75
2022/10/02 11:59:04;;;;;;;0.10;0.10;;;17.20;99.90;;;;;;5050614;28;20036;-75
2022/10/02 12:01:41;;;;;;;0.10;0.10;;;17.10;99.90;;;;;;5051145;28;20061;-75
2022/10/02 12:04:19;;;;;;;0.00;0.00;;;16.90;99.90;;;;;;5052009;28;20031;-75
2022/10/02 12:06:48;;;;;;;0.10;0.10;;;16.90;99.90;;;;;;5050463;28;20069;-75
2022/10/02 12:09:27;;;;;;;0.10;0.10;;;16.80;99.90;;;;;;5051921;28;20488;-75
2022/10/02 12:12:15;;;;;;;0.00;0.00;;;16.80;99.90;;;;;;5051981;28;20490;-75
2022/10/02 12:15:19;;;;;;;2.00;0.10;;;16.70;99.90;;;;;;5050651;28;20025;-75
2022/10/02 12:18:13;;;;;;;0.20;0.15;;;16.70;99.90;;;;;;5051898;28;20112;-75
2022/10/02 12:27:13;;;;;;;0.75;0.40;;;16.70;99.90;;;;;;5051684;28;20025;-74
2022/10/02 12:30:05;;;;;;;0.00;0.00;;;16.70;99.90;;;;;;5035374;28;20032;-75
2022/10/02 12:32:51;;;;;;;;;;;16.60;99.90;;;;;;5054930;28;20017;-75
2022/10/02 12:35:41;;;;;;;0.10;0.10;;;16.60;99.90;;;;;;5055585;28;19951;-75
2022/10/02 12:38:09;;;;;;;0.00;0.00;;;16.60;99.90;;;;;;5055802;28;20500;-75
2022/10/02 12:40:49;;;;;;;0.00;0.00;;;16.70;99.90;;;;;;5054582;28;20025;-75
2022/10/02 12:43:33;;;;;;;0.20;0.20;;;16.60;99.90;;;;;;5054293;28;20029;-75
2022/10/02 12:46:34;;;;;;;0.00;0.00;;;16.60;99.90;;;;;;5055490;28;20064;-75
2022/10/02 12:49:30;;;;;;;0.10;0.10;;;16.80;99.90;;;;;;5049904;28;20124;-75
2022/10/02 12:52:33;;;;;;;0.20;0.20;;;16.80;99.90;;;;;;5055525;28;20056;-75
2022/10/02 12:55:26;;;;;;;0.00;0.00;;;16.80;99.90;;;;;;5037073;28;20079;-75
2022/10/02 12:58:16;;;;;;;0.00;0.00;;;16.60;99.90;;;;;;5054356;28;20021;-75
2022/10/02 13:01:03;;;;;;;0.00;0.00;;;16.40;99.90;;;;;;5049945;28;20114;-74
2022/10/02 13:03:54;;;;;;;0.10;0.10;;;16.20;99.90;;;;;;5054077;28;20025;-74
2022/10/02 13:06:28;;;;;;;0.00;0.00;;;15.80;99.90;;;;;;5053825;28;20120;-74
2022/10/02 13:09:12;;;;;;;0.10;0.10;;;15.60;99.90;;;;;;5055305;28;20025;-75
2022/10/02 13:12:03;;;;;;;0.00;0.00;;;15.50;99.90;;;;;;5055058;28;20056;-75
2022/10/02 13:15:05;;;;;;;0.00;0.00;;;15.50;99.90;;;;;;5055071;28;20509;-74
2022/10/02 13:17:49;;;;;;;0.20;0.20;;;15.50;99.90;;;;;;5012970;28;20029;-74
2022/10/02 13:20:30;;;;;;;0.00;0.00;;;15.30;99.90;;;;;;5051957;28;20064;-74
2022/10/02 13:23:05;;;;;;;0.00;0.00;;;15.30;99.90;;;;;;5055286;28;20029;-75
2022/10/02 13:26:03;;;;;;;0.00;0.00;;;15.20;99.90;;;;;;5053527;28;20472;-74
2022/10/02 13:28:46;;;;;;;0.10;0.10;;;15.10;99.90;;;;;;5054713;28;20041;-74
2022/10/02 13:31:21;;;;;;;0.00;0.00;;;15.00;99.90;;;;;;5053469;28;20039;-74
2022/10/02 13:34:14;;;;;;;0.00;0.00;;;15.00;99.90;;;;;;5054806;28;20314;-74
2022/10/02 13:37:03;;;;;;;;;;;15.00;99.90;;;;;;5054850;28;20392;-74
2022/10/02 13:39:41;;;;;;;0.00;0.00;;;15.00;99.90;;;;;;5054661;28;19950;-74
2022/10/02 13:42:13;;;;;;;0.00;0.00;;;15.00;99.90;;;;;;5053241;28;20094;-75
2022/10/02 13:45:04;;;;;;;0.00;0.00;;;15.10;99.90;;;;;;5036695;28;20484;-74
2022/10/02 13:47:42;;;;;;;0.00;0.00;;;15.00;99.90;;;;;;5054530;28;20036;-74
2022/10/02 13:50:36;;;;;;;0.00;0.00;;;15.00;99.90;;;;;;5053412;28;20155;-74
2022/10/02 13:53:13;;;;;;;0.00;0.00;;;15.00;99.90;;;;;;5054360;28;20028;-74
2022/10/02 13:55:45;;;;;;;0.30;0.10;;;15.00;99.90;;;;;;5053869;28;20025;-74
2022/10/02 13:58:45;;;;;;;0.00;0.00;;;15.00;99.90;;;;;;5054319;28;20032;-74
2022/10/02 14:01:15;;;;;;;0.20;0.20;;;15.00;99.90;;;;;;5053204;28;20029;-74
2022/10/02 14:04:18;;;;;;;0.15;0.10;;;15.00;99.90;;;;;;5052968;28;20528;-74
2022/10/02 14:06:51;;;;;;;0.00;0.00;;;15.00;99.90;;;;;;5052536;28;20025;-74
2022/10/02 14:09:50;;;;;;;0.00;0.00;;;15.10;99.90;;;;;;5052789;28;20082;-75
2022/10/02 14:12:21;;;;;;;0.03;0.03;;;15.20;99.90;;;;;;5054097;28;20029;-74
2022/10/02 14:14:57;;;;;;;0.00;0.00;;;15.20;99.90;;;;;;5053847;28;20029;-74